sensor_id;sensor_type;location;lat;lon;timestamp;pressure;altitude;pressure_sealevel;temperature;humidity
62978;BME280;49073;42.352;23.808;2024-02-26T00:01:32;94294.81;;;6.46;100.00
62978;BME280;49073;42.352;23.808;2024-02-26T00:04:36;94305.66;;;6.28;100.00
62978;BME280;49073;42.352;23.808;2024-02-26T00:07:37;94301.75;;;6.38;100.00
62978;BME280;49073;42.352;23.808;2024-02-26T00:10:38;94296.03;;;6.48;100.00
62978;BME280;49073;42.352;23.808;2024-02-26T00:13:38;94284.97;;;6.59;100.00
62978;BME280;49073;42.352;23.808;2024-02-26T00:16:42;94285.28;;;6.57;100.00
62978;BME280;49073;42.352;23.808;2024-02-26T00:19:43;94288.47;;;6.63;100.00
62978;BME280;49073;42.352;23.808;2024-02-26T00:22:43;94292.13;;;6.58;100.00
62978;BME280;49073;42.352;23.808;2024-02-26T00:25:44;94274.88;;;6.64;100.00
62978;BME280;49073;42.352;23.808;2024-02-26T00:28:44;94264.44;;;6.55;100.00
62978;BME280;49073;42.352;23.808;2024-02-26T00:31:45;94272.72;;;6.54;100.00
62978;BME280;49073;42.352;23.808;2024-02-26T00:34:45;94270.56;;;6.72;100.00
62978;BME280;49073;42.352;23.808;2024-02-26T00:37:46;94265.94;;;6.69;100.00
62978;BME280;49073;42.352;23.808;2024-02-26T00:40:47;94264.59;;;6.75;100.00
62978;BME280;49073;42.352;23.808;2024-02-26T00:43:47;94268.63;;;6.85;100.00
62978;BME280;49073;42.352;23.808;2024-02-26T00:46:48;94262.31;;;6.90;100.00
62978;BME280;49073;42.352;23.808;2024-02-26T00:49:48;94257.84;;;6.94;100.00
62978;BME280;49073;42.352;23.808;2024-02-26T00:52:48;94246.34;;;7.02;100.00
62978;BME280;49073;42.352;23.808;2024-02-26T00:55:49;94250.28;;;6.92;100.00
62978;BME280;49073;42.352;23.808;2024-02-26T00:58:50;94237.44;;;6.94;100.00
62978;BME280;49073;42.352;23.808;2024-02-26T01:01:51;94238.38;;;7.02;100.00
62978;BME280;49073;42.352;23.808;2024-02-26T01:04:52;94226.44;;;7.08;100.00
62978;BME280;49073;42.352;23.808;2024-02-26T01:07:53;94231.56;;;7.17;100.00
62978;BME280;49073;42.352;23.808;2024-02-26T01:10:53;94235.31;;;7.16;100.00
62978;BME280;49073;42.352;23.808;2024-02-26T01:13:54;94232.34;;;7.18;100.00
62978;BME280;49073;42.352;23.808;2024-02-26T01:16:56;94227.31;;;7.12;100.00
62978;BME280;49073;42.352;23.808;2024-02-26T01:19:57;94233.88;;;7.19;100.00
62978;BME280;49073;42.352;23.808;2024-02-26T01:22:57;94223.72;;;7.21;100.00
62978;BME280;49073;42.352;23.808;2024-02-26T01:25:58;94224.47;;;7.21;100.00
62978;BME280;49073;42.352;23.808;2024-02-26T01:28:59;94220.81;;;7.26;100.00
62978;BME280;49073;42.352;23.808;2024-02-26T01:31:59;94216.94;;;7.23;100.00
62978;BME280;49073;42.352;23.808;2024-02-26T01:35:00;94215.06;;;7.08;100.00
62978;BME280;49073;42.352;23.808;2024-02-26T01:38:00;94220.91;;;7.13;100.00
62978;BME280;49073;42.352;23.808;2024-02-26T01:41:01;94212.09;;;7.09;100.00
62978;BME280;49073;42.352;23.808;2024-02-26T01:44:01;94218.66;;;7.16;100.00
62978;BME280;49073;42.352;23.808;2024-02-26T01:47:03;94212.00;;;7.22;100.00
62978;BME280;49073;42.352;23.808;2024-02-26T01:50:05;94214.47;;;7.15;100.00
62978;BME280;49073;42.352;23.808;2024-02-26T01:53:06;94196.69;;;7.15;100.00
62978;BME280;49073;42.352;23.808;2024-02-26T01:56:09;94188.41;;;7.01;100.00
62978;BME280;49073;42.352;23.808;2024-02-26T01:59:09;94184.28;;;7.19;100.00
62978;BME280;49073;42.352;23.808;2024-02-26T02:02:11;94198.66;;;7.18;100.00
62978;BME280;49073;42.352;23.808;2024-02-26T02:05:14;94199.44;;;7.19;100.00
62978;BME280;49073;42.352;23.808;2024-02-26T02:08:15;94202.16;;;7.06;100.00
62978;BME280;49073;42.352;23.808;2024-02-26T02:11:16;94192.66;;;7.05;100.00
62978;BME280;49073;42.352;23.808;2024-02-26T02:14:17;94185.59;;;7.09;100.00
62978;BME280;49073;42.352;23.808;2024-02-26T02:17:17;94180.72;;;6.95;100.00
62978;BME280;49073;42.352;23.808;2024-02-26T02:20:18;94198.91;;;7.13;100.00
62978;BME280;49073;42.352;23.808;2024-02-26T02:23:19;94194.19;;;7.22;100.00
62978;BME280;49073;42.352;23.808;2024-02-26T02:26:20;94185.66;;;7.13;100.00
62978;BME280;49073;42.352;23.808;2024-02-26T02:29:21;94187.72;;;7.20;100.00
62978;BME280;49073;42.352;23.808;2024-02-26T02:32:22;94186.78;;;7.28;100.00
62978;BME280;49073;42.352;23.808;2024-02-26T02:35:25;94178.13;;;7.31;100.00
62978;BME280;49073;42.352;23.808;2024-02-26T02:38:25;94178.97;;;7.35;100.00
62978;BME280;49073;42.352;23.808;2024-02-26T02:41:26;94188.22;;;7.25;100.00
62978;BME280;49073;42.352;23.808;2024-02-26T02:44:27;94187.94;;;7.31;100.00
62978;BME280;49073;42.352;23.808;2024-02-26T02:47:28;94183.69;;;7.42;100.00
62978;BME280;49073;42.352;23.808;2024-02-26T02:50:29;94191.13;;;7.36;100.00
62978;BME280;49073;42.352;23.808;2024-02-26T02:53:30;94185.56;;;7.41;100.00
62978;BME280;49073;42.352;23.808;2024-02-26T02:56:30;94185.13;;;7.39;100.00
62978;BME280;49073;42.352;23.808;2024-02-26T02:59:31;94189.41;;;7.44;100.00
62978;BME280;49073;42.352;23.808;2024-02-26T03:02:32;94209.66;;;7.36;100.00
62978;BME280;49073;42.352;23.808;2024-02-26T03:05:32;94204.81;;;7.38;100.00
62978;BME280;49073;42.352;23.808;2024-02-26T03:08:33;94209.50;;;7.45;100.00
62978;BME280;49073;42.352;23.808;2024-02-26T03:11:37;94202.00;;;7.31;100.00
62978;BME280;49073;42.352;23.808;2024-02-26T03:14:37;94206.50;;;7.31;100.00
62978;BME280;49073;42.352;23.808;2024-02-26T03:17:38;94209.00;;;7.39;100.00
62978;BME280;49073;42.352;23.808;2024-02-26T03:20:38;94210.53;;;7.40;100.00
62978;BME280;49073;42.352;23.808;2024-02-26T03:23:39;94208.03;;;7.32;100.00
62978;BME280;49073;42.352;23.808;2024-02-26T03:26:39;94207.28;;;7.31;100.00
62978;BME280;49073;42.352;23.808;2024-02-26T03:29:40;94215.75;;;7.37;100.00
62978;BME280;49073;42.352;23.808;2024-02-26T03:32:41;94210.69;;;7.32;100.00
62978;BME280;49073;42.352;23.808;2024-02-26T03:35:41;94208.28;;;7.42;100.00
62978;BME280;49073;42.352;23.808;2024-02-26T03:38:43;94204.09;;;7.41;100.00
62978;BME280;49073;42.352;23.808;2024-02-26T03:41:44;94208.81;;;7.32;100.00
62978;BME280;49073;42.352;23.808;2024-02-26T03:44:45;94202.94;;;7.39;100.00
62978;BME280;49073;42.352;23.808;2024-02-26T03:47:45;94213.19;;;7.40;100.00
62978;BME280;49073;42.352;23.808;2024-02-26T03:50:46;94201.97;;;7.47;100.00
62978;BME280;49073;42.352;23.808;2024-02-26T03:53:46;94193.94;;;7.43;100.00
62978;BME280;49073;42.352;23.808;2024-02-26T03:56:47;94191.28;;;7.43;100.00
62978;BME280;49073;42.352;23.808;2024-02-26T03:59:47;94199.75;;;7.33;100.00
62978;BME280;49073;42.352;23.808;2024-02-26T04:02:48;94195.81;;;7.43;100.00
62978;BME280;49073;42.352;23.808;2024-02-26T04:05:48;94194.78;;;7.48;100.00
62978;BME280;49073;42.352;23.808;2024-02-26T04:08:49;94198.28;;;7.52;100.00
62978;BME280;49073;42.352;23.808;2024-02-26T04:11:49;94204.53;;;7.43;100.00
62978;BME280;49073;42.352;23.808;2024-02-26T04:14:50;94187.94;;;7.47;100.00
62978;BME280;49073;42.352;23.808;2024-02-26T04:17:50;94202.16;;;7.38;100.00
62978;BME280;49073;42.352;23.808;2024-02-26T04:20:51;94191.44;;;7.35;100.00
62978;BME280;49073;42.352;23.808;2024-02-26T04:23:51;94198.47;;;7.27;100.00
62978;BME280;49073;42.352;23.808;2024-02-26T04:26:55;94204.47;;;7.24;100.00
62978;BME280;49073;42.352;23.808;2024-02-26T04:29:55;94193.53;;;7.09;100.00
62978;BME280;49073;42.352;23.808;2024-02-26T04:32:56;94199.59;;;7.10;100.00
62978;BME280;49073;42.352;23.808;2024-02-26T04:35:56;94205.16;;;7.05;100.00
62978;BME280;49073;42.352;23.808;2024-02-26T04:38:57;94207.28;;;6.99;100.00
62978;BME280;49073;42.352;23.808;2024-02-26T04:41:58;94216.19;;;7.07;100.00
62978;BME280;49073;42.352;23.808;2024-02-26T04:44:59;94205.66;;;6.94;100.00
62978;BME280;49073;42.352;23.808;2024-02-26T04:48:00;94214.53;;;7.02;100.00
62978;BME280;49073;42.352;23.808;2024-02-26T04:51:00;94213.94;;;6.93;100.00
62978;BME280;49073;42.352;23.808;2024-02-26T04:54:01;94205.06;;;6.85;100.00
62978;BME280;49073;42.352;23.808;2024-02-26T04:57:02;94206.84;;;6.81;100.00
62978;BME280;49073;42.352;23.808;2024-02-26T05:00:04;94202.78;;;6.55;100.00
62978;BME280;49073;42.352;23.808;2024-02-26T05:03:05;94196.31;;;6.52;100.00
62978;BME280;49073;42.352;23.808;2024-02-26T05:06:05;94198.53;;;6.66;100.00
62978;BME280;49073;42.352;23.808;2024-02-26T05:09:06;94208.19;;;6.59;100.00
62978;BME280;49073;42.352;23.808;2024-02-26T05:12:06;94208.09;;;6.55;100.00
62978;BME280;49073;42.352;23.808;2024-02-26T05:15:07;94216.38;;;6.53;100.00
62978;BME280;49073;42.352;23.808;2024-02-26T05:18:08;94213.41;;;6.71;100.00
62978;BME280;49073;42.352;23.808;2024-02-26T05:21:08;94215.44;;;6.62;100.00
62978;BME280;49073;42.352;23.808;2024-02-26T05:24:10;94224.25;;;6.66;100.00
62978;BME280;49073;42.352;23.808;2024-02-26T05:27:10;94213.56;;;6.62;100.00
62978;BME280;49073;42.352;23.808;2024-02-26T05:30:12;94213.41;;;6.71;100.00
62978;BME280;49073;42.352;23.808;2024-02-26T05:33:13;94218.78;;;6.75;100.00
62978;BME280;49073;42.352;23.808;2024-02-26T05:36:20;94228.81;;;6.81;100.00
62978;BME280;49073;42.352;23.808;2024-02-26T05:39:22;94222.94;;;6.88;100.00
62978;BME280;49073;42.352;23.808;2024-02-26T05:42:22;94230.94;;;6.92;100.00
62978;BME280;49073;42.352;23.808;2024-02-26T05:45:23;94230.63;;;6.93;100.00
62978;BME280;49073;42.352;23.808;2024-02-26T05:48:24;94255.56;;;6.92;100.00
62978;BME280;49073;42.352;23.808;2024-02-26T05:51:24;94249.09;;;7.06;100.00
62978;BME280;49073;42.352;23.808;2024-02-26T05:54:25;94255.34;;;7.13;100.00
62978;BME280;49073;42.352;23.808;2024-02-26T05:57:25;94258.84;;;7.18;100.00
62978;BME280;49073;42.352;23.808;2024-02-26T06:00:26;94258.75;;;7.14;100.00
62978;BME280;49073;42.352;23.808;2024-02-26T06:03:27;94265.69;;;7.19;100.00
62978;BME280;49073;42.352;23.808;2024-02-26T06:06:27;94270.63;;;7.20;100.00
62978;BME280;49073;42.352;23.808;2024-02-26T06:09:28;94273.13;;;7.29;100.00
62978;BME280;49073;42.352;23.808;2024-02-26T06:12:28;94279.84;;;7.26;100.00
62978;BME280;49073;42.352;23.808;2024-02-26T06:15:31;94265.50;;;7.43;100.00
62978;BME280;49073;42.352;23.808;2024-02-26T06:18:31;94278.16;;;7.50;100.00
62978;BME280;49073;42.352;23.808;2024-02-26T06:21:32;94281.50;;;7.47;100.00
62978;BME280;49073;42.352;23.808;2024-02-26T06:24:33;94280.28;;;7.45;100.00
62978;BME280;49073;42.352;23.808;2024-02-26T06:27:34;94281.78;;;7.42;100.00
62978;BME280;49073;42.352;23.808;2024-02-26T06:30:35;94287.50;;;7.44;100.00
62978;BME280;49073;42.352;23.808;2024-02-26T06:33:36;94287.72;;;7.55;100.00
62978;BME280;49073;42.352;23.808;2024-02-26T06:36:36;94295.41;;;7.76;100.00
62978;BME280;49073;42.352;23.808;2024-02-26T06:39:37;94289.28;;;7.72;100.00
62978;BME280;49073;42.352;23.808;2024-02-26T06:42:38;94299.97;;;7.76;100.00
62978;BME280;49073;42.352;23.808;2024-02-26T06:45:39;94305.44;;;7.83;100.00
62978;BME280;49073;42.352;23.808;2024-02-26T06:48:40;94302.34;;;7.81;100.00
62978;BME280;49073;42.352;23.808;2024-02-26T06:51:40;94302.84;;;7.86;100.00
62978;BME280;49073;42.352;23.808;2024-02-26T06:54:40;94301.66;;;7.84;100.00
62978;BME280;49073;42.352;23.808;2024-02-26T06:57:41;94293.41;;;8.05;100.00
62978;BME280;49073;42.352;23.808;2024-02-26T07:00:45;94295.72;;;8.07;100.00
62978;BME280;49073;42.352;23.808;2024-02-26T07:03:46;94299.34;;;7.98;100.00
62978;BME280;49073;42.352;23.808;2024-02-26T07:06:47;94300.44;;;7.97;100.00
62978;BME280;49073;42.352;23.808;2024-02-26T07:09:47;94302.25;;;7.93;100.00
62978;BME280;49073;42.352;23.808;2024-02-26T07:12:48;94297.94;;;8.05;100.00
62978;BME280;49073;42.352;23.808;2024-02-26T07:15:49;94294.75;;;8.15;100.00
62978;BME280;49073;42.352;23.808;2024-02-26T07:18:49;94296.97;;;8.13;100.00
62978;BME280;49073;42.352;23.808;2024-02-26T07:21:50;94289.53;;;8.19;100.00
62978;BME280;49073;42.352;23.808;2024-02-26T07:24:50;94294.75;;;8.15;100.00
62978;BME280;49073;42.352;23.808;2024-02-26T07:27:51;94288.53;;;8.07;100.00
62978;BME280;49073;42.352;23.808;2024-02-26T07:30:52;94298.53;;;8.14;100.00
62978;BME280;49073;42.352;23.808;2024-02-26T07:33:52;94299.09;;;8.23;100.00
62978;BME280;49073;42.352;23.808;2024-02-26T07:36:53;94305.75;;;8.33;100.00
62978;BME280;49073;42.352;23.808;2024-02-26T07:39:54;94300.31;;;8.45;100.00
62978;BME280;49073;42.352;23.808;2024-02-26T07:42:54;94307.22;;;8.30;100.00
62978;BME280;49073;42.352;23.808;2024-02-26T07:45:56;94301.97;;;8.34;100.00
62978;BME280;49073;42.352;23.808;2024-02-26T07:48:57;94304.22;;;8.32;100.00
62978;BME280;49073;42.352;23.808;2024-02-26T07:51:57;94300.16;;;8.54;100.00
62978;BME280;49073;42.352;23.808;2024-02-26T07:54:58;94303.84;;;8.50;100.00
62978;BME280;49073;42.352;23.808;2024-02-26T07:57:59;94308.69;;;8.48;100.00
62978;BME280;49073;42.352;23.808;2024-02-26T08:01:00;94311.72;;;8.46;100.00
62978;BME280;49073;42.352;23.808;2024-02-26T08:04:01;94307.16;;;8.47;100.00
62978;BME280;49073;42.352;23.808;2024-02-26T08:07:01;94312.66;;;8.73;100.00
62978;BME280;49073;42.352;23.808;2024-02-26T08:10:02;94314.69;;;8.80;100.00
62978;BME280;49073;42.352;23.808;2024-02-26T08:13:04;94321.31;;;8.90;100.00
62978;BME280;49073;42.352;23.808;2024-02-26T08:16:07;94324.28;;;8.65;100.00
62978;BME280;49073;42.352;23.808;2024-02-26T08:19:08;94321.38;;;8.74;100.00
62978;BME280;49073;42.352;23.808;2024-02-26T08:22:10;94336.56;;;8.73;100.00
62978;BME280;49073;42.352;23.808;2024-02-26T08:25:16;94337.75;;;8.76;100.00
62978;BME280;49073;42.352;23.808;2024-02-26T08:28:17;94336.00;;;8.64;100.00
62978;BME280;49073;42.352;23.808;2024-02-26T08:31:18;94328.81;;;8.65;100.00
62978;BME280;49073;42.352;23.808;2024-02-26T08:34:19;94334.47;;;8.63;100.00
62978;BME280;49073;42.352;23.808;2024-02-26T08:37:19;94334.56;;;8.86;100.00
62978;BME280;49073;42.352;23.808;2024-02-26T08:40:20;94330.34;;;8.85;100.00
62978;BME280;49073;42.352;23.808;2024-02-26T08:43:20;94333.34;;;9.03;100.00
62978;BME280;49073;42.352;23.808;2024-02-26T08:46:21;94325.06;;;9.28;100.00
62978;BME280;49073;42.352;23.808;2024-02-26T08:49:22;94323.53;;;9.51;100.00
62978;BME280;49073;42.352;23.808;2024-02-26T08:52:23;94308.13;;;9.60;99.38
62978;BME280;49073;42.352;23.808;2024-02-26T08:55:24;94316.84;;;9.84;96.32
62978;BME280;49073;42.352;23.808;2024-02-26T08:58:26;94319.44;;;9.80;94.72
62978;BME280;49073;42.352;23.808;2024-02-26T09:01:27;94310.03;;;9.86;97.05
62978;BME280;49073;42.352;23.808;2024-02-26T09:04:28;94313.72;;;9.78;96.78
62978;BME280;49073;42.352;23.808;2024-02-26T09:07:28;94297.91;;;9.89;97.11
62978;BME280;49073;42.352;23.808;2024-02-26T09:10:28;94303.44;;;10.30;97.15
62978;BME280;49073;42.352;23.808;2024-02-26T09:13:29;94294.56;;;10.50;91.50
62978;BME280;49073;42.352;23.808;2024-02-26T09:16:30;94286.53;;;10.46;89.58
62978;BME280;49073;42.352;23.808;2024-02-26T09:19:30;94282.94;;;10.34;89.09
62978;BME280;49073;42.352;23.808;2024-02-26T09:22:31;94282.22;;;10.38;90.90
62978;BME280;49073;42.352;23.808;2024-02-26T09:25:32;94291.19;;;10.26;90.78
62978;BME280;49073;42.352;23.808;2024-02-26T09:28:33;94285.66;;;10.11;93.35
62978;BME280;49073;42.352;23.808;2024-02-26T09:31:37;94281.06;;;10.08;95.88
62978;BME280;49073;42.352;23.808;2024-02-26T09:34:40;94279.03;;;9.98;97.21
62978;BME280;49073;42.352;23.808;2024-02-26T09:37:41;94286.94;;;9.94;96.79
62978;BME280;49073;42.352;23.808;2024-02-26T09:40:44;94283.38;;;9.83;97.09
62978;BME280;49073;42.352;23.808;2024-02-26T09:43:45;94292.56;;;9.89;97.75
62978;BME280;49073;42.352;23.808;2024-02-26T09:46:52;94294.09;;;9.90;97.48
62978;BME280;49073;42.352;23.808;2024-02-26T09:49:53;94283.13;;;9.92;96.90
62978;BME280;49073;42.352;23.808;2024-02-26T09:52:54;94284.06;;;9.80;96.88
62978;BME280;49073;42.352;23.808;2024-02-26T09:55:58;94275.69;;;9.78;97.28
62978;BME280;49073;42.352;23.808;2024-02-26T09:58:59;94279.03;;;9.98;97.06
62978;BME280;49073;42.352;23.808;2024-02-26T10:02:00;94280.00;;;10.13;96.43
62978;BME280;49073;42.352;23.808;2024-02-26T10:05:03;94287.50;;;10.07;96.25
62978;BME280;49073;42.352;23.808;2024-02-26T10:08:09;94288.22;;;10.04;95.67
62978;BME280;49073;42.352;23.808;2024-02-26T10:11:11;94276.94;;;10.11;95.61
62978;BME280;49073;42.352;23.808;2024-02-26T10:14:14;94275.38;;;10.10;94.97
62978;BME280;49073;42.352;23.808;2024-02-26T10:17:15;94262.97;;;10.21;94.79
62978;BME280;49073;42.352;23.808;2024-02-26T10:20:17;94265.09;;;10.39;94.06
62978;BME280;49073;42.352;23.808;2024-02-26T10:23:18;94258.66;;;10.40;92.74
62978;BME280;49073;42.352;23.808;2024-02-26T10:26:19;94264.47;;;10.45;92.20
62978;BME280;49073;42.352;23.808;2024-02-26T10:29:20;94257.19;;;10.42;92.39
62978;BME280;49073;42.352;23.808;2024-02-26T10:32:21;94251.22;;;10.53;91.65
62978;BME280;49073;42.352;23.808;2024-02-26T10:35:22;94248.19;;;10.54;90.63
62978;BME280;49073;42.352;23.808;2024-02-26T10:38:22;94250.31;;;10.72;90.95
62978;BME280;49073;42.352;23.808;2024-02-26T10:41:24;94246.84;;;10.68;89.88
62978;BME280;49073;42.352;23.808;2024-02-26T10:44:25;94242.56;;;10.97;89.59
62978;BME280;49073;42.352;23.808;2024-02-26T10:47:26;94245.38;;;11.12;87.98
62978;BME280;49073;42.352;23.808;2024-02-26T10:50:27;94233.66;;;11.24;80.60
62978;BME280;49073;42.352;23.808;2024-02-26T10:53:29;94232.59;;;11.32;78.12
62978;BME280;49073;42.352;23.808;2024-02-26T10:56:34;94236.41;;;11.34;76.54
62978;BME280;49073;42.352;23.808;2024-02-26T10:59:35;94228.47;;;11.42;77.13
62978;BME280;49073;42.352;23.808;2024-02-26T11:02:36;94231.75;;;11.24;81.36
62978;BME280;49073;42.352;23.808;2024-02-26T11:05:38;94224.19;;;11.33;82.56
62978;BME280;49073;42.352;23.808;2024-02-26T11:08:41;94220.06;;;11.40;79.24
62978;BME280;49073;42.352;23.808;2024-02-26T11:11:42;94225.03;;;11.41;74.90
62978;BME280;49073;42.352;23.808;2024-02-26T11:14:46;94217.47;;;11.50;79.33
62978;BME280;49073;42.352;23.808;2024-02-26T11:17:47;94223.56;;;11.47;80.49
62978;BME280;49073;42.352;23.808;2024-02-26T11:20:49;94221.34;;;11.57;80.03
62978;BME280;49073;42.352;23.808;2024-02-26T11:23:51;94216.34;;;11.52;79.32
62978;BME280;49073;42.352;23.808;2024-02-26T11:26:55;94214.47;;;11.56;77.16
62978;BME280;49073;42.352;23.808;2024-02-26T11:30:02;94213.31;;;11.57;73.62
62978;BME280;49073;42.352;23.808;2024-02-26T11:33:09;94208.84;;;11.72;69.54
62978;BME280;49073;42.352;23.808;2024-02-26T11:36:11;94204.66;;;11.74;68.28
62978;BME280;49073;42.352;23.808;2024-02-26T11:39:12;94202.09;;;11.89;69.64
62978;BME280;49073;42.352;23.808;2024-02-26T11:42:17;94199.59;;;12.14;70.24
62978;BME280;49073;42.352;23.808;2024-02-26T11:48:39;94194.97;;;12.07;70.76
62978;BME280;49073;42.352;23.808;2024-02-26T11:51:42;94193.06;;;12.12;70.34
62978;BME280;49073;42.352;23.808;2024-02-26T11:54:46;94185.13;;;12.22;66.51
62978;BME280;49073;42.352;23.808;2024-02-26T11:57:54;94179.47;;;12.39;63.60
62978;BME280;49073;42.352;23.808;2024-02-26T12:00:57;94175.66;;;12.40;62.41
62978;BME280;49073;42.352;23.808;2024-02-26T12:03:58;94182.91;;;12.43;61.75
62978;BME280;49073;42.352;23.808;2024-02-26T12:07:03;94181.81;;;12.58;60.98
62978;BME280;49073;42.352;23.808;2024-02-26T12:13:30;94179.56;;;12.93;60.29
62978;BME280;49073;42.352;23.808;2024-02-26T12:16:37;94176.91;;;13.04;59.15
62978;BME280;49073;42.352;23.808;2024-02-26T12:19:38;94169.19;;;12.59;57.46
62978;BME280;49073;42.352;23.808;2024-02-26T12:22:40;94181.00;;;12.40;58.48
62978;BME280;49073;42.352;23.808;2024-02-26T12:25:40;94171.75;;;12.26;58.26
62978;BME280;49073;42.352;23.808;2024-02-26T12:28:41;94173.63;;;12.15;58.57
62978;BME280;49073;42.352;23.808;2024-02-26T12:31:42;94179.72;;;12.12;58.86
62978;BME280;49073;42.352;23.808;2024-02-26T12:34:43;94180.88;;;12.11;59.50
62978;BME280;49073;42.352;23.808;2024-02-26T12:37:44;94177.09;;;12.19;59.46
62978;BME280;49073;42.352;23.808;2024-02-26T12:40:45;94171.34;;;12.17;62.21
62978;BME280;49073;42.352;23.808;2024-02-26T12:43:46;94172.06;;;12.06;63.47
62978;BME280;49073;42.352;23.808;2024-02-26T12:46:46;94164.81;;;12.07;62.06
62978;BME280;49073;42.352;23.808;2024-02-26T12:49:48;94172.09;;;12.10;61.29
62978;BME280;49073;42.352;23.808;2024-02-26T12:52:51;94173.66;;;12.18;60.24
62978;BME280;49073;42.352;23.808;2024-02-26T12:55:52;94172.03;;;12.03;60.94
62978;BME280;49073;42.352;23.808;2024-02-26T12:58:53;94165.94;;;12.06;62.02
62978;BME280;49073;42.352;23.808;2024-02-26T13:01:54;94158.72;;;12.06;61.97
62978;BME280;49073;42.352;23.808;2024-02-26T13:04:55;94162.16;;;12.03;60.91
62978;BME280;49073;42.352;23.808;2024-02-26T13:07:57;94169.75;;;12.01;61.34
62978;BME280;49073;42.352;23.808;2024-02-26T13:10:59;94168.16;;;11.89;60.91
62978;BME280;49073;42.352;23.808;2024-02-26T13:14:01;94173.50;;;11.97;61.98
62978;BME280;49073;42.352;23.808;2024-02-26T13:17:03;94168.97;;;12.01;60.63
62978;BME280;49073;42.352;23.808;2024-02-26T13:20:04;94171.75;;;12.19;61.52
62978;BME280;49073;42.352;23.808;2024-02-26T13:23:09;94159.53;;;12.18;57.03
62978;BME280;49073;42.352;23.808;2024-02-26T13:26:12;94174.78;;;12.14;56.63
62978;BME280;49073;42.352;23.808;2024-02-26T13:29:19;94176.31;;;12.11;55.29
62978;BME280;49073;42.352;23.808;2024-02-26T13:32:20;94183.13;;;12.01;56.22
62978;BME280;49073;42.352;23.808;2024-02-26T13:35:21;94187.72;;;12.04;57.67
62978;BME280;49073;42.352;23.808;2024-02-26T13:38:22;94192.66;;;12.06;57.65
62978;BME280;49073;42.352;23.808;2024-02-26T13:41:23;94196.47;;;12.05;59.25
62978;BME280;49073;42.352;23.808;2024-02-26T13:44:24;94190.34;;;12.01;59.81
62978;BME280;49073;42.352;23.808;2024-02-26T13:47:24;94197.94;;;11.95;60.02
62978;BME280;49073;42.352;23.808;2024-02-26T13:50:25;94195.16;;;11.77;59.26
62978;BME280;49073;42.352;23.808;2024-02-26T13:53:25;94205.00;;;11.66;61.24
62978;BME280;49073;42.352;23.808;2024-02-26T13:56:26;94207.69;;;11.66;61.72
62978;BME280;49073;42.352;23.808;2024-02-26T13:59:26;94200.75;;;11.57;63.03
62978;BME280;49073;42.352;23.808;2024-02-26T14:02:27;94199.97;;;11.53;64.19
62978;BME280;49073;42.352;23.808;2024-02-26T14:05:28;94204.91;;;11.51;64.80
62978;BME280;49073;42.352;23.808;2024-02-26T14:08:28;94201.81;;;11.45;64.38
62978;BME280;49073;42.352;23.808;2024-02-26T14:11:29;94203.78;;;11.52;64.47
62978;BME280;49073;42.352;23.808;2024-02-26T14:14:29;94207.13;;;11.42;61.32
62978;BME280;49073;42.352;23.808;2024-02-26T14:17:33;94202.16;;;11.40;62.94
62978;BME280;49073;42.352;23.808;2024-02-26T14:20:33;94207.47;;;11.37;63.89
62978;BME280;49073;42.352;23.808;2024-02-26T14:23:34;94205.84;;;11.25;65.43
62978;BME280;49073;42.352;23.808;2024-02-26T14:26:35;94208.88;;;11.23;65.96
62978;BME280;49073;42.352;23.808;2024-02-26T14:29:36;94204.38;;;11.31;66.22
62978;BME280;49073;42.352;23.808;2024-02-26T14:32:37;94206.16;;;11.16;65.34
62978;BME280;49073;42.352;23.808;2024-02-26T14:35:38;94194.44;;;11.28;65.14
62978;BME280;49073;42.352;23.808;2024-02-26T14:38:38;94208.53;;;11.28;64.83
62978;BME280;49073;42.352;23.808;2024-02-26T14:41:39;94213.94;;;11.35;64.14
62978;BME280;49073;42.352;23.808;2024-02-26T14:44:40;94206.72;;;11.36;64.20
62978;BME280;49073;42.352;23.808;2024-02-26T14:47:41;94211.59;;;11.30;63.91
62978;BME280;49073;42.352;23.808;2024-02-26T14:50:41;94213.41;;;11.19;64.66
62978;BME280;49073;42.352;23.808;2024-02-26T14:53:42;94216.81;;;11.16;64.73
62978;BME280;49073;42.352;23.808;2024-02-26T14:56:43;94222.56;;;11.18;64.55
62978;BME280;49073;42.352;23.808;2024-02-26T14:59:44;94228.53;;;11.04;64.15
62978;BME280;49073;42.352;23.808;2024-02-26T15:02:45;94232.31;;;11.03;65.06
62978;BME280;49073;42.352;23.808;2024-02-26T15:05:46;94234.97;;;10.99;65.46
62978;BME280;49073;42.352;23.808;2024-02-26T15:08:47;94236.78;;;10.91;65.65
62978;BME280;49073;42.352;23.808;2024-02-26T15:11:47;94242.91;;;10.92;65.85
62978;BME280;49073;42.352;23.808;2024-02-26T15:14:48;94242.03;;;10.84;65.52
62978;BME280;49073;42.352;23.808;2024-02-26T15:17:49;94236.66;;;10.77;66.13
62978;BME280;49073;42.352;23.808;2024-02-26T15:20:50;94240.03;;;10.74;66.30
62978;BME280;49073;42.352;23.808;2024-02-26T15:23:50;94252.59;;;10.73;66.12
62978;BME280;49073;42.352;23.808;2024-02-26T15:26:54;94253.44;;;10.81;66.45
62978;BME280;49073;42.352;23.808;2024-02-26T15:29:55;94249.25;;;10.80;67.17
62978;BME280;49073;42.352;23.808;2024-02-26T15:33:00;94261.78;;;10.80;65.79
62978;BME280;49073;42.352;23.808;2024-02-26T15:36:00;94262.16;;;10.78;66.11
62978;BME280;49073;42.352;23.808;2024-02-26T15:39:01;94264.69;;;10.67;66.70
62978;BME280;49073;42.352;23.808;2024-02-26T15:42:03;94257.75;;;10.59;66.34
62978;BME280;49073;42.352;23.808;2024-02-26T15:45:04;94260.09;;;10.64;66.34
62978;BME280;49073;42.352;23.808;2024-02-26T15:48:05;94260.56;;;10.70;66.78
62978;BME280;49073;42.352;23.808;2024-02-26T15:51:06;94268.31;;;10.82;68.34
62978;BME280;49073;42.352;23.808;2024-02-26T15:54:06;94274.88;;;10.92;69.28